Time;durP1;ratioP1;P1;durP2;ratioP2;P2;SDS_P1;SDS_P2;PMS_P1;PMS_P2;Temp;Humidity;BMP_temperature;BMP_pressure;BME280_temperature;BME280_humidity;BME280_pressure;Samples;Min_cycle;Max_cycle;Signal;HPM_P1;HPM_P2
2023/11/10 00:01:36;;;;;;;15.35;9.20;;;;;;;9.96;61.28;100201.75;5113301;28;20123;-40
2023/11/10 00:04:01;;;;;;;13.55;8.23;;;;;;;9.79;60.12;100198.50;5113004;28;20051;-41
2023/11/10 00:06:26;;;;;;;15.15;8.40;;;;;;;9.91;60.54;100200.66;5113207;28;20024;-36
2023/11/10 00:08:53;;;;;;;16.40;8.38;;;;;;;9.78;60.69;100210.13;5112805;28;20019;-39
2023/11/10 00:11:18;;;;;;;15.93;9.07;;;;;;;9.93;61.06;100203.97;5112994;28;20087;-39
2023/11/10 00:13:45;;;;;;;15.25;9.55;;;;;;;9.83;60.59;100195.47;5113348;28;20012;-39
2023/11/10 00:16:10;;;;;;;19.92;8.95;;;;;;;9.62;61.75;100185.63;5112856;28;20030;-39
2023/11/10 00:18:35;;;;;;;15.75;8.85;;;;;;;9.53;61.52;100188.38;5112612;28;20055;-38
2023/11/10 00:21:01;;;;;;;15.98;8.80;;;;;;;9.46;61.34;100197.25;5112900;28;20023;-38
2023/11/10 00:23:27;;;;;;;15.45;9.10;;;;;;;9.55;63.03;100189.00;5094266;28;20024;-38
2023/11/10 00:25:52;;;;;;;15.32;9.40;;;;;;;9.58;62.03;100188.66;5112646;28;20031;-39
2023/11/10 00:28:17;;;;;;;18.40;9.18;;;;;;;9.66;61.46;100182.41;5112452;28;20556;-40
2023/11/10 00:30:44;;;;;;;18.13;9.80;;;;;;;9.55;61.25;100170.41;5112884;28;20019;-39
2023/11/10 00:33:09;;;;;;;15.60;9.15;;;;;;;9.60;60.73;100167.22;5111524;28;20066;-39
2023/11/10 00:35:35;;;;;;;18.42;10.07;;;;;;;9.56;61.12;100181.88;5112558;28;20046;-39
2023/11/10 00:38:00;;;;;;;18.65;10.00;;;;;;;9.56;61.00;100182.69;5112470;28;20042;-39
2023/11/10 00:40:25;;;;;;;19.88;9.55;;;;;;;9.51;61.14;100181.59;5112121;28;20027;-40
2023/11/10 00:42:51;;;;;;;18.42;10.00;;;;;;;9.71;61.61;100184.47;5112449;28;20027;-39
2023/11/10 00:45:16;;;;;;;17.02;9.85;;;;;;;9.59;61.38;100174.38;5112628;28;20484;-40
2023/11/10 00:47:41;;;;;;;17.92;9.70;;;;;;;9.52;60.97;100168.16;5112464;28;20521;-38
2023/11/10 00:50:07;;;;;;;18.63;9.50;;;;;;;9.64;61.33;100176.44;5112356;28;20099;-39
2023/11/10 00:52:33;;;;;;;17.23;9.80;;;;;;;9.65;61.93;100167.44;5112227;28;20028;-38
2023/11/10 00:54:59;;;;;;;15.32;9.43;;;;;;;9.54;60.87;100173.28;5112461;28;20015;-40
2023/11/10 00:57:24;;;;;;;18.88;9.63;;;;;;;9.49;61.52;100178.31;5112246;28;20436;-39
2023/11/10 00:59:49;;;;;;;20.48;9.45;;;;;;;9.46;62.07;100184.84;5112412;28;20051;-38
2023/11/10 01:02:15;;;;;;;15.57;9.48;;;;;;;9.41;62.52;100173.94;5112322;28;20027;-38
2023/11/10 01:04:42;;;;;;;17.20;9.18;;;;;;;9.35;62.03;100156.09;5111955;28;20110;-38
2023/11/10 01:07:08;;;;;;;18.42;10.05;;;;;;;9.58;61.96;100171.88;5112176;28;20047;-39
2023/11/10 01:09:33;;;;;;;18.42;9.48;;;;;;;9.54;62.08;100174.09;5112117;28;20043;-37
2023/11/10 01:11:59;;;;;;;18.50;9.43;;;;;;;9.66;62.15;100181.59;5111968;28;20107;-38
2023/11/10 01:14:24;;;;;;;15.57;9.40;;;;;;;9.51;62.30;100186.91;5111874;28;20460;-39
2023/11/10 01:16:50;;;;;;;15.52;9.00;;;;;;;9.61;61.22;100194.59;5111760;28;20062;-40
2023/11/10 01:19:16;;;;;;;17.95;9.63;;;;;;;9.55;61.38;100186.34;5111646;28;20110;-40
2023/11/10 01:21:42;;;;;;;16.95;9.18;;;;;;;9.64;61.63;100186.25;5111891;28;20032;-37
2023/11/10 01:24:07;;;;;;;16.15;9.18;;;;;;;9.61;61.42;100195.41;5112017;28;20100;-39
2023/11/10 01:26:33;;;;;;;16.70;9.02;;;;;;;9.51;61.95;100186.91;5111899;28;20055;-39
2023/11/10 01:28:58;;;;;;;15.38;8.88;;;;;;;9.57;61.56;100192.31;5112132;28;20024;-39
2023/11/10 01:31:24;;;;;;;20.38;9.15;;;;;;;9.48;60.83;100187.28;5111765;28;20024;-38
2023/11/10 01:33:49;;;;;;;17.20;8.75;;;;;;;9.47;60.45;100178.50;5111721;28;20054;-39
2023/11/10 01:36:15;;;;;;;15.82;9.13;;;;;;;9.40;61.04;100180.22;5111976;28;20383;-39
2023/11/10 01:38:41;;;;;;;15.50;8.98;;;;;;;9.49;62.13;100176.47;5111891;28;20027;-39
2023/11/10 01:41:06;;;;;;;15.75;9.20;;;;;;;9.41;61.04;100173.13;5111830;28;20531;-38
2023/11/10 01:43:32;;;;;;;15.98;9.07;;;;;;;9.42;61.55;100178.22;5111563;28;20386;-39
2023/11/10 01:45:57;;;;;;;16.02;8.80;;;;;;;9.20;62.01;100169.38;5115661;28;20024;-38
2023/11/10 01:48:23;;;;;;;14.95;8.65;;;;;;;9.25;61.41;100169.63;5115252;28;20048;-37
2023/11/10 01:50:48;;;;;;;15.32;9.05;;;;;;;9.30;61.60;100163.78;5115566;28;20016;-39
2023/11/10 01:53:14;;;;;;;15.38;8.88;;;;;;;9.38;61.48;100174.28;5115629;28;20028;-39
2023/11/10 01:55:43;;;;;;;14.55;8.35;;;;;;;9.25;61.89;100163.50;5115735;28;20027;-36
2023/11/10 01:58:11;;;;;;;14.27;8.40;;;;;;;9.22;61.67;100162.03;5115282;28;20102;-36
2023/11/10 02:00:38;;;;;;;13.13;8.10;;;;;;;9.27;61.37;100166.78;5115268;28;20023;-39
2023/11/10 02:03:06;;;;;;;12.45;8.10;;;;;;;9.24;61.76;100157.38;5115613;28;20077;-39
2023/11/10 02:05:33;;;;;;;13.77;8.00;;;;;;;9.26;61.26;100157.19;5115424;28;20030;-39
2023/11/10 02:07:59;;;;;;;14.63;7.53;;;;;;;9.18;60.28;100156.28;5115245;28;20020;-40
2023/11/10 02:10:25;;;;;;;15.00;7.25;;;;;;;9.10;61.08;100155.53;5115272;28;20019;-40
2023/11/10 02:12:55;;;;;;;10.90;7.20;;;;;;;9.06;62.49;100160.38;5115183;28;20024;-39
2023/11/10 02:15:22;;;;;;;12.00;6.70;;;;;;;9.01;61.65;100168.09;5115215;28;20466;-37
2023/11/10 02:17:48;;;;;;;12.88;7.38;;;;;;;9.05;61.19;100161.41;5115083;28;20049;-38
2023/11/10 02:20:13;;;;;;;11.60;7.13;;;;;;;9.11;60.89;100165.97;5115383;28;20078;-39
2023/11/10 02:22:49;;;;;;;12.82;7.20;;;;;;;9.14;61.41;100156.84;5115252;28;20027;-37
2023/11/10 02:25:21;;;;;;;11.73;6.65;;;;;;;8.88;60.63;100160.75;5114793;28;20459;-38
2023/11/10 02:27:47;;;;;;;10.45;6.32;;;;;;;8.99;60.88;100162.94;5115039;28;20023;-39
2023/11/10 02:30:13;;;;;;;9.85;6.50;;;;;;;8.97;61.00;100148.22;5114863;28;20027;-40
2023/11/10 02:32:39;;;;;;;12.57;7.63;;;;;;;8.84;61.46;100158.66;5115181;28;20155;-38
2023/11/10 02:35:07;;;;;;;11.73;7.45;;;;;;;8.90;62.13;100156.09;5114425;28;20088;-40
2023/11/10 02:37:33;;;;;;;12.30;7.00;;;;;;;8.77;61.80;100161.19;5114696;28;20024;-39
2023/11/10 02:39:58;;;;;;;10.57;6.53;;;;;;;8.82;61.49;100160.66;5114715;28;20455;-37
2023/11/10 02:42:23;;;;;;;11.55;7.07;;;;;;;8.76;61.34;100156.91;5114507;28;20023;-38
2023/11/10 02:44:49;;;;;;;10.18;6.72;;;;;;;8.89;61.20;100175.69;5114577;28;20030;-38
2023/11/10 02:47:14;;;;;;;11.73;6.82;;;;;;;8.81;61.55;100173.09;5114325;28;20447;-40
2023/11/10 02:49:40;;;;;;;9.88;6.80;;;;;;;8.64;62.65;100180.38;5114601;28;20019;-39
2023/11/10 02:52:06;;;;;;;11.75;6.78;;;;;;;8.50;62.34;100179.34;5114386;28;20051;-39
2023/11/10 02:54:31;;;;;;;10.90;7.07;;;;;;;8.65;62.42;100176.75;5114474;28;20019;-39
2023/11/10 02:56:57;;;;;;;11.70;7.05;;;;;;;8.66;62.01;100178.38;5113499;28;20479;-40
2023/11/10 02:59:22;;;;;;;11.07;7.13;;;;;;;8.59;61.77;100175.63;5114075;28;20321;-40
2023/11/10 03:01:47;;;;;;;12.77;7.55;;;;;;;8.66;62.82;100170.41;5114172;28;20099;-39
2023/11/10 03:04:13;;;;;;;13.95;7.20;;;;;;;8.73;62.36;100165.22;5096124;28;20019;-40
2023/11/10 03:06:38;;;;;;;13.23;7.07;;;;;;;8.78;62.19;100161.03;5114069;28;20024;-38
2023/11/10 03:09:04;;;;;;;10.63;6.70;;;;;;;8.77;62.12;100162.00;5113915;28;20496;-39
2023/11/10 03:11:30;;;;;;;10.40;7.00;;;;;;;8.66;61.13;100154.50;5113855;28;20023;-40
2023/11/10 03:13:55;;;;;;;11.65;6.38;;;;;;;8.78;61.65;100161.03;5113819;28;20016;-38
2023/11/10 03:16:23;;;;;;;13.75;6.65;;;;;;;8.71;61.58;100159.28;5114067;28;20011;-39
2023/11/10 03:18:52;;;;;;;11.10;6.80;;;;;;;8.69;61.89;100145.38;5114255;28;20471;-37
2023/11/10 03:21:18;;;;;;;10.13;6.70;;;;;;;8.70;61.41;100147.00;5113762;28;20059;-39
2023/11/10 03:23:44;;;;;;;10.45;6.47;;;;;;;8.59;61.47;100146.44;5113907;28;20023;-39
2023/11/10 03:26:09;;;;;;;9.85;6.55;;;;;;;8.58;61.20;100144.78;5114110;28;20024;-36
2023/11/10 03:28:34;;;;;;;10.65;6.90;;;;;;;8.42;61.10;100147.59;5113813;28;20039;-39
2023/11/10 03:31:00;;;;;;;10.88;6.63;;;;;;;8.40;61.09;100146.94;5113704;28;20023;-39
2023/11/10 03:33:26;;;;;;;11.57;6.50;;;;;;;8.23;61.30;100146.25;5113705;28;20091;-37
2023/11/10 03:35:52;;;;;;;9.15;6.30;;;;;;;7.91;63.47;100139.38;5113780;28;20119;-38
2023/11/10 03:38:17;;;;;;;13.05;6.60;;;;;;;8.11;63.58;100148.50;5113544;28;20054;-39
2023/11/10 03:40:43;;;;;;;12.43;6.65;;;;;;;8.00;62.93;100151.56;5113362;28;20080;-40
2023/11/10 03:43:08;;;;;;;11.32;6.80;;;;;;;7.86;62.97;100147.00;5113229;28;20028;-39
2023/11/10 03:45:33;;;;;;;10.98;6.65;;;;;;;7.77;64.46;100139.13;5113567;28;20050;-39
2023/11/10 03:47:59;;;;;;;10.77;6.95;;;;;;;7.77;63.38;100139.13;5113056;28;20056;-37
2023/11/10 03:50:24;;;;;;;10.50;6.68;;;;;;;7.75;63.50;100137.63;5113203;28;20446;-38
2023/11/10 03:52:50;;;;;;;11.27;6.47;;;;;;;7.83;62.95;100124.34;5113323;28;20023;-38
2023/11/10 03:55:15;;;;;;;9.32;5.55;;;;;;;7.74;63.68;100120.09;5113213;28;20019;-40
2023/11/10 03:57:40;;;;;;;8.55;5.90;;;;;;;7.61;63.17;100121.47;5113204;28;20026;-39
2023/11/10 04:00:07;;;;;;;10.35;6.30;;;;;;;7.67;63.47;100124.44;5116475;27;20024;-39
2023/11/10 04:02:34;;;;;;;10.55;5.80;;;;;;;7.59;63.98;100130.59;5122264;27;20020;-39
2023/11/10 04:04:59;;;;;;;9.68;5.70;;;;;;;7.70;63.68;100130.22;5114071;27;20031;-38
2023/11/10 04:07:24;;;;;;;11.35;6.68;;;;;;;7.79;63.73;100123.06;5121042;27;20023;-39
2023/11/10 04:09:50;;;;;;;10.10;6.03;;;;;;;7.77;63.24;100130.34;5121631;27;20016;-37
2023/11/10 04:12:15;;;;;;;11.23;6.65;;;;;;;7.80;63.21;100136.09;5122095;27;20094;-39
2023/11/10 04:14:41;;;;;;;13.10;7.07;;;;;;;7.83;63.03;100134.94;5123766;27;20022;-39
2023/11/10 04:17:06;;;;;;;12.05;7.00;;;;;;;7.85;63.31;100145.38;5116225;27;20455;-40
2023/11/10 04:19:33;;;;;;;15.05;6.80;;;;;;;7.65;64.14;100137.84;5111936;28;20471;-39
2023/11/10 04:21:58;;;;;;;10.55;6.18;;;;;;;7.54;64.41;100143.53;5111899;28;20498;-39
2023/11/10 04:24:24;;;;;;;12.68;6.30;;;;;;;7.51;64.52;100143.91;5111761;28;20027;-37
2023/11/10 04:26:49;;;;;;;10.70;6.15;;;;;;;7.73;63.61;100147.56;5111867;28;20035;-40
2023/11/10 04:29:15;;;;;;;11.10;6.10;;;;;;;7.79;63.29;100149.53;5111650;28;20055;-40
2023/11/10 04:31:41;;;;;;;9.23;5.70;;;;;;;7.77;62.93;100141.78;5111645;28;20019;-40
2023/11/10 04:34:07;;;;;;;8.93;5.22;;;;;;;7.75;63.22;100138.47;5111862;27;20023;-40
2023/11/10 04:36:32;;;;;;;10.15;5.43;;;;;;;7.72;63.58;100141.47;5120112;27;20079;-39
2023/11/10 04:38:58;;;;;;;11.57;5.80;;;;;;;7.66;63.54;100133.41;5113886;27;20106;-39
2023/11/10 04:41:24;;;;;;;9.13;5.22;;;;;;;7.70;63.12;100124.09;5123152;27;20030;-40
2023/11/10 04:43:50;;;;;;;9.60;5.18;;;;;;;7.78;62.59;100130.16;5131920;27;20060;-39
2023/11/10 04:46:15;;;;;;;7.30;5.20;;;;;;;7.77;62.68;100127.69;5111368;28;20059;-40
2023/11/10 04:48:41;;;;;;;8.75;5.57;;;;;;;7.59;63.44;100127.97;5111376;28;20035;-40
2023/11/10 04:51:06;;;;;;;10.73;5.63;;;;;;;7.83;62.30;100125.16;5111296;28;20034;-40
2023/11/10 04:53:32;;;;;;;9.27;5.45;;;;;;;7.82;62.14;100127.97;5120336;27;20027;-39
2023/11/10 04:55:57;;;;;;;10.57;5.53;;;;;;;7.75;61.98;100119.94;5122601;27;20455;-41
2023/11/10 04:58:23;;;;;;;10.93;5.90;;;;;;;7.76;62.00;100126.03;5111374;28;20471;-40
2023/11/10 05:00:49;;;;;;;10.10;5.85;;;;;;;7.82;62.07;100135.94;5111084;28;20092;-39
2023/11/10 05:03:18;;;;;;;9.90;5.85;;;;;;;7.73;62.45;100136.97;5111809;28;20054;-41
2023/11/10 05:05:45;;;;;;;10.43;6.10;;;;;;;7.64;62.86;100144.16;5111697;28;20032;-41
2023/11/10 05:08:11;;;;;;;8.80;6.18;;;;;;;7.53;63.07;100144.56;5111015;28;20566;-37
2023/11/10 05:10:37;;;;;;;10.98;6.18;;;;;;;7.57;62.95;100135.25;5111645;28;20027;-41
2023/11/10 05:13:03;;;;;;;9.25;5.88;;;;;;;7.27;63.71;100132.41;5111462;28;20402;-40
2023/11/10 05:15:29;;;;;;;14.10;7.07;;;;;;;7.42;63.37;100130.72;5111526;28;20098;-43
2023/11/10 05:17:54;;;;;;;11.68;7.68;;;;;;;7.46;63.24;100125.06;5111660;28;20166;-40
2023/11/10 05:20:21;;;;;;;11.05;6.70;;;;;;;7.68;62.70;100123.44;5096286;28;20023;-41
2023/11/10 05:22:47;;;;;;;18.10;7.97;;;;;;;7.80;61.75;100104.31;5115713;28;20106;-39
2023/11/10 05:25:12;;;;;;;12.02;7.47;;;;;;;7.80;62.48;100122.03;5115428;28;20110;-40
2023/11/10 05:27:39;;;;;;;14.68;7.90;;;;;;;7.91;62.13;100129.56;5115784;28;20471;-39
2023/11/10 05:30:06;;;;;;;13.05;7.88;;;;;;;8.02;64.14;100128.34;5115657;28;20076;-40
2023/11/10 05:32:32;;;;;;;17.75;7.55;;;;;;;8.20;62.31;100115.59;5115981;28;20027;-40
2023/11/10 05:34:58;;;;;;;16.35;7.88;;;;;;;8.39;61.67;100121.41;5115571;28;20024;-40
2023/11/10 05:37:25;;;;;;;16.92;8.20;;;;;;;8.77;70.19;100134.66;5115704;28;20027;-40
2023/11/10 05:39:51;;;;;;;13.65;8.30;;;;;;;8.85;64.03;100131.91;5115103;28;20081;-40
2023/11/10 05:42:22;;;;;;;16.17;7.82;;;;;;;8.79;64.84;100137.94;5115103;28;20020;-39
2023/11/10 05:44:49;;;;;;;13.02;7.45;;;;;;;9.15;62.57;100127.41;5115293;28;20024;-41
2023/11/10 05:47:14;;;;;;;11.63;7.40;;;;;;;9.41;61.29;100134.09;5114903;28;20570;-40
2023/11/10 05:49:41;;;;;;;20.13;9.13;;;;;;;9.46;60.09;100125.53;5115307;28;20099;-42
2023/11/10 05:52:07;;;;;;;17.00;7.85;;;;;;;9.57;59.57;100130.38;5114989;28;20388;-40
2023/11/10 05:54:32;;;;;;;11.75;7.32;;;;;;;9.65;59.24;100143.53;5114747;28;20034;-41
2023/11/10 05:56:57;;;;;;;15.27;7.63;;;;;;;9.95;58.82;100149.56;5115738;28;20110;-42
2023/11/10 05:59:25;;;;;;;14.63;7.78;;;;;;;10.04;59.28;100146.81;5115736;28;20038;-40
2023/11/10 06:01:51;;;;;;;12.55;7.22;;;;;;;10.23;58.58;100146.16;5115544;28;20038;-42
2023/11/10 06:04:16;;;;;;;13.40;6.50;;;;;;;10.53;57.29;100146.84;5115704;28;20023;-42
2023/11/10 06:06:43;;;;;;;7.78;5.93;;;;;;;10.78;56.15;100159.72;5115191;28;20529;-41
2023/11/10 06:09:13;;;;;;;12.90;5.82;;;;;;;11.04;54.31;100152.91;5115069;28;20031;-41
2023/11/10 06:11:38;;;;;;;13.63;6.13;;;;;;;11.24;54.38;100156.50;5115489;28;20554;-44
2023/11/10 06:14:05;;;;;;;8.90;5.38;;;;;;;11.08;55.74;100143.50;5115305;28;20111;-41
2023/11/10 06:16:31;;;;;;;10.52;6.13;;;;;;;11.36;55.03;100138.09;5115107;28;20651;-43
2023/11/10 06:18:57;;;;;;;10.27;5.97;;;;;;;11.56;57.05;100154.19;5115238;28;20148;-41
2023/11/10 06:21:23;;;;;;;9.02;6.30;;;;;;;11.72;56.15;100151.13;5115164;28;20428;-40
2023/11/10 06:23:52;;;;;;;10.00;6.18;;;;;;;12.21;52.45;100145.75;5114999;28;20494;-40
2023/11/10 06:26:17;;;;;;;12.27;6.68;;;;;;;12.62;51.76;100147.34;5115123;28;20020;-40
2023/11/10 06:28:44;;;;;;;7.30;5.07;;;;;;;12.93;50.00;100148.53;5114382;28;20379;-40
2023/11/10 06:31:11;;;;;;;8.50;5.30;;;;;;;13.17;49.63;100147.03;5114340;28;20093;-41
2023/11/10 06:33:38;;;;;;;7.30;5.38;;;;;;;13.37;47.71;100144.34;5114196;28;20031;-41
2023/11/10 06:36:04;;;;;;;13.38;5.63;;;;;;;13.56;47.84;100150.63;5114030;28;20023;-42
2023/11/10 06:38:29;;;;;;;9.32;5.22;;;;;;;13.49;47.15;100146.13;5114104;28;20100;-41
2023/11/10 06:40:55;;;;;;;13.63;5.70;;;;;;;13.29;46.59;100148.84;5113890;28;20049;-41
2023/11/10 06:43:21;;;;;;;7.38;5.28;;;;;;;13.45;47.94;100141.44;5113980;28;20030;-42
2023/11/10 06:45:47;;;;;;;7.00;5.00;;;;;;;13.65;46.68;100139.47;5113919;28;20112;-41
2023/11/10 06:48:12;;;;;;;7.28;4.38;;;;;;;13.72;46.64;100154.66;5113741;28;20051;-42
2023/11/10 06:50:38;;;;;;;6.70;4.32;;;;;;;13.95;46.02;100154.94;5113915;28;20019;-41
2023/11/10 06:53:03;;;;;;;7.70;4.50;;;;;;;13.81;45.78;100151.53;5114302;28;20023;-41
2023/11/10 06:55:29;;;;;;;5.95;3.95;;;;;;;14.01;44.71;100155.91;5113914;28;20217;-41
2023/11/10 06:57:54;;;;;;;10.65;5.88;;;;;;;14.19;44.36;100147.97;5113767;28;20020;-42
2023/11/10 07:00:19;;;;;;;10.27;5.10;;;;;;;14.48;43.94;100146.50;5113782;28;20027;-43
2023/11/10 07:02:45;;;;;;;6.45;4.18;;;;;;;14.69;43.32;100127.63;5114026;28;20483;-45
2023/11/10 07:05:11;;;;;;;6.53;4.18;;;;;;;14.75;43.18;100114.16;5113963;28;20096;-43
2023/11/10 07:07:37;;;;;;;7.18;4.07;;;;;;;15.13;43.05;100101.59;5113448;28;20062;-43
2023/11/10 07:10:03;;;;;;;12.45;7.00;;;;;;;15.50;42.53;100094.31;5113675;28;20419;-41
2023/11/10 07:12:29;;;;;;;8.95;4.70;;;;;;;15.89;41.46;100086.75;5113828;28;20030;-41
2023/11/10 07:14:55;;;;;;;9.27;4.30;;;;;;;16.29;40.08;100085.28;5113884;28;20031;-41
2023/11/10 07:17:20;;;;;;;5.50;4.10;;;;;;;16.46;40.05;100080.84;5113578;28;20552;-44
2023/11/10 07:19:45;;;;;;;7.72;4.13;;;;;;;16.74;39.55;100084.69;5113676;28;20168;-44
2023/11/10 07:22:11;;;;;;;6.80;4.40;;;;;;;16.90;39.76;100081.31;5113427;28;20027;-44
2023/11/10 07:24:37;;;;;;;7.28;4.20;;;;;;;16.76;39.44;100077.22;5113591;28;20032;-45
2023/11/10 07:27:06;;;;;;;7.93;4.70;;;;;;;16.82;39.16;100070.94;5113458;28;20430;-42
2023/11/10 07:29:34;;;;;;;6.25;4.55;;;;;;;17.05;38.78;100075.44;5113624;28;20024;-44
2023/11/10 07:32:00;;;;;;;7.55;4.88;;;;;;;17.12;38.61;100065.34;5111351;28;20035;-43
2023/11/10 07:34:26;;;;;;;7.65;4.35;;;;;;;17.25;37.91;100074.19;5112587;28;20024;-42
2023/11/10 07:36:53;;;;;;;7.32;4.70;;;;;;;17.37;37.72;100067.72;5108402;28;20028;-41
2023/11/10 07:39:19;;;;;;;7.13;4.72;;;;;;;17.57;37.77;100061.06;5111298;28;20023;-41
2023/11/10 07:41:44;;;;;;;7.70;4.80;;;;;;;17.95;37.27;100052.34;5102094;28;20020;-41
2023/11/10 07:44:12;;;;;;;11.50;5.05;;;;;;;18.07;36.67;100057.66;5092690;28;20027;-41
2023/11/10 07:46:37;;;;;;;11.38;5.13;;;;;;;18.11;36.16;100053.41;5092425;28;20044;-41
2023/11/10 07:49:03;;;;;;;9.77;5.25;;;;;;;18.06;36.71;100042.53;5092508;28;20039;-41
2023/11/10 07:51:29;;;;;;;8.88;4.70;;;;;;;18.04;36.88;100044.66;5110732;28;20030;-39
2023/11/10 07:53:54;;;;;;;6.70;4.82;;;;;;;18.14;37.21;100050.22;5110839;28;20547;-42
2023/11/10 07:56:20;;;;;;;7.10;4.80;;;;;;;18.49;37.00;100051.81;5098939;28;20024;-42
2023/11/10 07:58:45;;;;;;;8.10;5.43;;;;;;;18.70;36.96;100050.19;5106506;28;20031;-40
2023/11/10 08:01:13;;;;;;;10.13;5.20;;;;;;;18.94;35.97;100031.94;5097594;28;20124;-41
2023/11/10 08:03:42;;;;;;;9.23;5.40;;;;;;;19.17;35.99;100031.91;5101025;28;20020;-41
2023/11/10 08:06:09;;;;;;;7.90;5.32;;;;;;;18.85;35.38;100032.59;5109150;28;20103;-42
2023/11/10 08:08:35;;;;;;;9.88;5.18;;;;;;;19.03;35.57;100021.50;5112362;28;20552;-41
2023/11/10 08:11:00;;;;;;;8.40;5.28;;;;;;;19.19;35.35;100025.19;5110625;28;20051;-41
2023/11/10 08:13:26;;;;;;;8.88;5.07;;;;;;;19.52;35.84;100028.75;5111864;28;20039;-41
2023/11/10 08:15:52;;;;;;;8.75;5.18;;;;;;;19.56;34.62;100026.38;5111479;28;20027;-42
2023/11/10 08:18:17;;;;;;;9.45;5.40;;;;;;;19.62;34.28;100023.44;5110428;28;20031;-42
2023/11/10 08:20:44;;;;;;;9.43;5.40;;;;;;;19.20;34.70;100029.50;5110610;28;20032;-40
2023/11/10 08:23:10;;;;;;;8.65;5.20;;;;;;;19.18;34.91;100036.25;5111259;28;20035;-41
2023/11/10 08:25:36;;;;;;;9.10;5.30;;;;;;;19.48;34.97;100038.44;5111378;28;20038;-42
2023/11/10 08:28:04;;;;;;;8.80;5.63;;;;;;;18.98;35.00;100026.81;5111183;28;20019;-41
2023/11/10 08:30:31;;;;;;;9.70;5.55;;;;;;;18.88;35.79;100022.13;5111709;28;20182;-42
2023/11/10 08:32:59;;;;;;;9.82;5.07;;;;;;;19.14;35.78;100028.66;5111777;28;20106;-41
2023/11/10 08:35:25;;;;;;;9.45;5.70;;;;;;;19.18;34.71;100025.44;5112281;28;20041;-40
2023/11/10 08:37:50;;;;;;;8.88;5.72;;;;;;;18.92;34.89;100030.53;5111906;28;20030;-39
2023/11/10 08:40:16;;;;;;;8.77;5.50;;;;;;;19.17;35.14;100024.63;5111725;28;20080;-43
2023/11/10 08:42:41;;;;;;;11.88;5.85;;;;;;;19.27;34.64;100037.41;5112113;28;20023;-41
2023/11/10 08:45:07;;;;;;;8.13;5.57;;;;;;;18.99;35.35;100038.44;5111771;28;20103;-40
2023/11/10 08:47:33;;;;;;;7.85;5.60;;;;;;;19.23;34.97;100022.78;5111510;28;20051;-42
2023/11/10 08:49:58;;;;;;;9.60;5.70;;;;;;;19.42;34.82;100032.19;5111683;28;20024;-42
2023/11/10 08:52:24;;;;;;;9.52;5.90;;;;;;;19.38;34.92;100030.22;5111791;28;20495;-40
2023/11/10 08:54:51;;;;;;;11.10;6.30;;;;;;;19.09;35.52;100031.28;5111338;28;20024;-44
2023/11/10 08:57:17;;;;;;;9.02;6.03;;;;;;;18.97;35.98;100029.81;5111649;28;20023;-43
2023/11/10 08:59:43;;;;;;;9.73;5.88;;;;;;;18.75;35.84;100025.19;5111304;28;20475;-42
2023/11/10 09:02:09;;;;;;;11.15;5.90;;;;;;;18.53;36.60;100023.28;5111966;28;20023;-42
2023/11/10 09:04:34;;;;;;;8.82;5.55;;;;;;;18.71;36.38;100032.94;5111800;28;20027;-40
2023/11/10 09:07:00;;;;;;;9.93;5.40;;;;;;;18.85;36.11;100028.06;5111456;28;20084;-40
2023/11/10 09:09:26;;;;;;;8.88;5.22;;;;;;;19.24;35.59;100029.81;5111917;28;20028;-41
2023/11/10 09:11:51;;;;;;;9.52;5.97;;;;;;;19.36;35.47;100024.28;5111633;28;20041;-41
2023/11/10 09:14:17;;;;;;;7.28;5.10;;;;;;;19.70;34.99;100014.91;5111537;28;20012;-40
2023/11/10 09:16:44;;;;;;;7.68;4.95;;;;;;;19.89;34.97;100011.81;5111356;28;20559;-40
2023/11/10 09:19:10;;;;;;;8.07;5.10;;;;;;;19.84;34.34;100014.50;5111282;28;20391;-44
2023/11/10 09:21:35;;;;;;;8.07;5.00;;;;;;;18.94;35.93;100006.84;5111554;28;20027;-40
2023/11/10 09:24:02;;;;;;;8.65;5.43;;;;;;;18.45;35.92;99990.56;5111487;28;20042;-42
2023/11/10 09:26:27;;;;;;;9.32;5.05;;;;;;;18.74;35.92;99992.03;5111103;28;20475;-43
2023/11/10 09:28:54;;;;;;;6.50;4.50;;;;;;;19.12;35.51;99995.72;5111703;28;20107;-41
2023/11/10 09:31:20;;;;;;;10.02;4.82;;;;;;;19.27;35.91;99984.28;5110909;28;20503;-40
2023/11/10 09:33:45;;;;;;;8.20;5.10;;;;;;;19.47;35.70;99978.22;5111363;28;20024;-41
2023/11/10 09:36:10;;;;;;;8.07;5.07;;;;;;;18.89;36.18;99964.47;5111261;28;20497;-43
2023/11/10 09:38:36;;;;;;;7.80;4.82;;;;;;;19.25;35.60;99966.72;5111111;28;20020;-41
2023/11/10 09:41:05;;;;;;;8.55;4.93;;;;;;;19.45;35.52;99976.88;5111031;28;20020;-40
2023/11/10 09:43:31;;;;;;;6.30;4.70;;;;;;;19.61;35.44;99975.09;5111443;28;20019;-42
2023/11/10 09:46:02;;;;;;;11.93;5.90;;;;;;;19.04;35.56;99960.28;5110919;28;20019;-41
2023/11/10 09:48:29;;;;;;;8.52;4.75;;;;;;;19.17;35.60;99948.28;5110905;28;20063;-43
2023/11/10 09:50:59;;;;;;;7.75;4.50;;;;;;;19.49;35.13;99945.59;5110998;28;20019;-42
2023/11/10 09:53:25;;;;;;;6.38;4.57;;;;;;;19.45;35.60;99942.59;5111277;28;20012;-43
2023/11/10 09:55:52;;;;;;;7.45;4.60;;;;;;;19.25;35.07;99931.66;5111244;28;20084;-41
2023/11/10 09:58:20;;;;;;;6.53;4.50;;;;;;;19.32;35.63;99924.13;5111234;28;20027;-40
2023/11/10 10:00:48;;;;;;;7.90;4.70;;;;;;;19.36;35.50;99933.34;5110970;28;20038;-40
2023/11/10 10:03:13;;;;;;;5.63;4.15;;;;;;;19.36;34.97;99922.53;5111098;28;20047;-41
2023/11/10 10:05:40;;;;;;;7.00;4.97;;;;;;;19.07;35.60;99906.66;5112981;28;20019;-42
2023/11/10 10:08:06;;;;;;;6.75;4.35;;;;;;;19.28;36.19;99901.44;5114800;28;20065;-43
2023/11/10 10:10:33;;;;;;;7.80;4.85;;;;;;;19.09;36.46;99892.91;5114991;28;20029;-45
2023/11/10 10:13:00;;;;;;;9.23;4.82;;;;;;;19.05;36.96;99887.22;5114875;28;20035;-40
2023/11/10 10:15:28;;;;;;;8.32;4.85;;;;;;;19.10;36.72;99879.19;5115047;28;20027;-44
2023/11/10 10:17:53;;;;;;;6.00;4.63;;;;;;;18.86;36.75;99877.88;5114982;28;20028;-41
2023/11/10 10:20:21;;;;;;;7.90;4.95;;;;;;;19.01;36.36;99864.53;5114731;28;20039;-45
2023/11/10 10:22:48;;;;;;;7.78;4.90;;;;;;;18.95;36.84;99873.66;5114680;28;20091;-42
2023/11/10 10:25:15;;;;;;;7.55;4.88;;;;;;;18.95;36.84;99866.38;5114554;28;20024;-41
2023/11/10 10:27:43;;;;;;;6.43;4.85;;;;;;;19.01;36.40;99869.94;5114778;28;20023;-43
2023/11/10 10:30:09;;;;;;;11.20;5.50;;;;;;;19.03;36.71;99859.69;5114719;28;20047;-44
2023/11/10 10:32:35;;;;;;;8.93;5.60;;;;;;;18.52;37.88;99854.63;5114478;28;20494;-42
2023/11/10 10:35:00;;;;;;;8.45;5.20;;;;;;;18.64;37.93;99846.38;5114490;28;20024;-40
2023/11/10 10:37:29;;;;;;;8.20;5.25;;;;;;;18.76;37.56;99843.53;5114473;28;20099;-42
2023/11/10 10:39:59;;;;;;;10.20;5.10;;;;;;;19.02;37.19;99841.91;5113903;28;20399;-41
2023/11/10 10:42:34;;;;;;;6.72;5.10;;;;;;;19.21;37.04;99838.78;5114297;28;20467;-40
2023/11/10 10:45:02;;;;;;;7.40;4.95;;;;;;;19.17;36.35;99843.09;5113953;28;20112;-43
2023/11/10 10:47:28;;;;;;;8.30;5.00;;;;;;;19.20;36.64;99853.38;5113785;28;20043;-38
2023/11/10 10:49:54;;;;;;;8.13;5.28;;;;;;;19.02;36.50;99838.38;5113877;28;20046;-40
2023/11/10 10:52:20;;;;;;;13.57;5.45;;;;;;;18.91;36.60;99826.72;5113686;28;20472;-41
2023/11/10 10:54:46;;;;;;;9.25;5.50;;;;;;;18.75;36.77;99818.44;5113904;28;20031;-39
2023/11/10 10:57:13;;;;;;;6.55;5.18;;;;;;;18.66;36.83;99803.81;5114009;28;20030;-44
2023/11/10 10:59:40;;;;;;;9.00;5.00;;;;;;;18.38;36.99;99798.69;5113626;28;20051;-41
2023/11/10 11:02:09;;;;;;;8.43;5.20;;;;;;;18.55;37.10;99797.50;5114118;28;20020;-40
2023/11/10 11:05:08;;;;;;;7.03;5.15;;;;;;;18.85;36.91;99784.56;5113799;28;20483;-41
2023/11/10 11:08:02;;;;;;;7.93;5.70;;;;;;;18.40;38.23;99765.03;5113938;28;20495;-42
2023/11/10 11:10:45;;;;;;;8.82;5.13;;;;;;;18.62;36.99;99766.81;5113859;28;20491;-42
2023/11/10 11:13:20;;;;;;;7.88;5.68;;;;;;;18.42;36.38;99770.16;5113480;28;20068;-42
2023/11/10 11:16:14;;;;;;;9.18;5.47;;;;;;;18.58;36.50;99753.03;5113615;28;20116;-43
2023/11/10 11:19:21;;;;;;;7.20;4.60;;;;;;;18.61;35.79;99727.50;5113148;28;20073;-46
2023/11/10 11:21:49;;;;;;;6.93;4.95;;;;;;;19.04;35.77;99729.19;5102608;28;20035;-40
2023/11/10 11:24:22;;;;;;;9.05;5.13;;;;;;;19.25;35.17;99750.91;5113569;28;20108;-40